createdAt,value
2022-11-08T00:02:20.308Z,4.90
2022-11-08T00:04:47.062Z,4.80
2022-11-08T00:07:32.392Z,4.70
2022-11-08T00:10:17.542Z,4.70
2022-11-08T00:13:02.530Z,4.60
2022-11-08T00:15:29.681Z,4.60
2022-11-08T00:17:56.711Z,4.60
2022-11-08T00:20:23.326Z,4.70
2022-11-08T00:22:50.052Z,4.70
2022-11-08T00:25:16.678Z,4.70
2022-11-08T00:27:43.284Z,4.70
2022-11-08T00:30:10.242Z,4.70
2022-11-08T00:32:36.931Z,4.60
2022-11-08T00:35:03.766Z,4.70
2022-11-08T00:37:30.460Z,4.70
2022-11-08T00:39:57.107Z,4.70
2022-11-08T00:42:23.779Z,4.60
2022-11-08T00:44:50.426Z,4.50
2022-11-08T00:47:17.061Z,4.50
2022-11-08T00:49:43.744Z,4.50
2022-11-08T00:52:10.386Z,4.50
2022-11-08T00:54:37.013Z,4.50
2022-11-08T00:57:03.710Z,4.60
2022-11-08T00:59:30.380Z,4.50
2022-11-08T01:01:57.165Z,4.50
2022-11-08T01:04:23.897Z,4.50
2022-11-08T01:06:50.543Z,4.50
2022-11-08T01:09:17.648Z,4.50
2022-11-08T01:11:46.692Z,4.50
2022-11-08T01:14:14.291Z,4.60
2022-11-08T01:16:41.624Z,4.60
2022-11-08T01:19:08.546Z,4.70
2022-11-08T01:21:35.259Z,4.70
2022-11-08T01:24:01.921Z,4.70
2022-11-08T01:26:29.588Z,4.70
2022-11-08T01:28:56.880Z,4.70
2022-11-08T01:31:24.845Z,4.70
2022-11-08T01:33:52.113Z,4.70
2022-11-08T01:36:20.627Z,4.60
2022-11-08T01:38:47.511Z,4.60
2022-11-08T01:41:15.154Z,4.60
2022-11-08T01:43:43.779Z,4.70
2022-11-08T01:46:23.073Z,4.60
2022-11-08T01:49:09.987Z,4.70
2022-11-08T01:51:38.954Z,4.70
2022-11-08T01:54:07.081Z,4.70
2022-11-08T01:56:34.316Z,4.70
2022-11-08T01:59:01.730Z,4.70
2022-11-08T02:01:28.497Z,4.60
2022-11-08T02:03:55.290Z,4.50
2022-11-08T02:06:22.073Z,4.50
2022-11-08T02:08:48.915Z,4.50
2022-11-08T02:11:16.486Z,4.50
2022-11-08T02:13:43.156Z,4.50
2022-11-08T02:16:11.198Z,4.50
2022-11-08T02:18:38.033Z,4.50
2022-11-08T02:21:04.660Z,4.50
2022-11-08T02:23:53.456Z,4.60
2022-11-08T02:26:22.933Z,4.60
2022-11-08T02:28:49.569Z,4.70
2022-11-08T02:31:17.842Z,4.80
2022-11-08T02:33:45.233Z,4.80
2022-11-08T02:36:13.795Z,4.90
2022-11-08T02:38:42.319Z,4.90
2022-11-08T02:41:09.244Z,4.80
2022-11-08T02:43:35.953Z,4.80
2022-11-08T02:46:02.650Z,4.80
2022-11-08T02:48:29.370Z,4.80
2022-11-08T02:50:56.076Z,4.80
2022-11-08T02:53:22.993Z,4.70
2022-11-08T02:55:49.640Z,4.70
2022-11-08T02:58:16.761Z,4.60
2022-11-08T03:00:43.568Z,4.60
2022-11-08T03:03:10.196Z,4.60
2022-11-08T03:05:36.898Z,4.70
2022-11-08T03:08:03.628Z,4.60
2022-11-08T03:10:31.140Z,4.70
2022-11-08T03:12:58.610Z,4.70
2022-11-08T03:15:25.370Z,4.70
2022-11-08T03:17:52.214Z,4.70
2022-11-08T03:20:19.150Z,4.70
2022-11-08T03:22:47.176Z,4.70
2022-11-08T03:25:13.925Z,4.70
2022-11-08T03:27:40.581Z,4.70
2022-11-08T03:30:07.471Z,4.70
2022-11-08T03:32:34.093Z,4.70
2022-11-08T03:35:01.065Z,4.70
2022-11-08T03:37:27.728Z,4.70
2022-11-08T03:39:54.403Z,4.60
2022-11-08T03:42:21.047Z,4.60
2022-11-08T03:44:47.663Z,4.60
2022-11-08T03:47:14.330Z,4.60
2022-11-08T03:49:40.920Z,4.50
2022-11-08T03:52:07.556Z,4.60
2022-11-08T03:54:34.191Z,4.60
2022-11-08T03:57:00.857Z,4.60
2022-11-08T03:59:27.496Z,4.50
2022-11-08T04:01:54.342Z,4.50
2022-11-08T04:04:21.111Z,4.50
2022-11-08T04:06:47.755Z,4.50
2022-11-08T04:09:19.029Z,4.50
2022-11-08T04:12:06.839Z,4.50
2022-11-08T04:14:51.952Z,4.50
2022-11-08T04:17:18.593Z,4.50
2022-11-08T04:20:03.553Z,4.40
2022-11-08T04:22:30.205Z,4.40
2022-11-08T04:24:56.808Z,4.40
2022-11-08T04:27:23.451Z,4.40
2022-11-08T04:29:50.117Z,4.30
2022-11-08T04:32:16.763Z,4.30
2022-11-08T04:34:43.391Z,4.30
2022-11-08T04:37:10.034Z,4.30
2022-11-08T04:39:36.639Z,4.30
2022-11-08T04:42:03.333Z,4.30
2022-11-08T04:44:29.971Z,4.30
2022-11-08T04:46:56.578Z,4.30
2022-11-08T04:49:23.249Z,4.20
2022-11-08T04:51:50.225Z,4.20
2022-11-08T04:54:16.826Z,4.20
2022-11-08T04:56:43.395Z,4.10
2022-11-08T04:59:12.096Z,4.20
2022-11-08T05:01:39.214Z,4.20
2022-11-08T05:04:06.182Z,4.10
2022-11-08T05:06:32.869Z,4.20
2022-11-08T05:08:59.929Z,4.20
2022-11-08T05:11:28.191Z,4.20
2022-11-08T05:13:54.860Z,4.20
2022-11-08T05:16:22.884Z,4.20
2022-11-08T05:18:49.802Z,4.20
2022-11-08T05:21:35.680Z,4.20
2022-11-08T05:24:03.802Z,4.20
2022-11-08T05:26:32.882Z,4.30
2022-11-08T05:28:59.596Z,4.20
2022-11-08T05:31:26.216Z,4.20
2022-11-08T05:33:52.993Z,4.20
2022-11-08T05:36:19.767Z,4.20
2022-11-08T05:38:46.394Z,4.20
2022-11-08T05:41:15.657Z,4.30
2022-11-08T05:43:42.671Z,4.20
2022-11-08T05:46:09.386Z,4.20
2022-11-08T05:48:36.109Z,4.20
2022-11-08T05:51:02.809Z,4.20
2022-11-08T05:53:31.729Z,4.10
2022-11-08T05:55:59.485Z,4.10
2022-11-08T05:58:26.475Z,4.10
2022-11-08T06:01:03.732Z,4.10
2022-11-08T06:03:31.068Z,4.10
2022-11-08T06:06:08.397Z,4.10
2022-11-08T06:08:35.584Z,4.20
2022-11-08T06:11:03.772Z,4.20
2022-11-08T06:13:30.716Z,4.20
2022-11-08T06:16:01.471Z,4.10
2022-11-08T06:18:28.698Z,4.10
2022-11-08T06:20:55.549Z,4.10
2022-11-08T06:23:22.171Z,4.10
2022-11-08T06:25:48.798Z,4.00
2022-11-08T06:28:15.786Z,4.10
2022-11-08T06:30:42.519Z,4.10
2022-11-08T06:33:10.278Z,4.10
2022-11-08T06:35:37.355Z,4.10
2022-11-08T06:38:09.003Z,4.10
2022-11-08T06:40:37.380Z,4.20
2022-11-08T06:43:03.977Z,4.20
2022-11-08T06:45:30.773Z,4.30
2022-11-08T06:47:58.670Z,4.30
2022-11-08T06:50:25.715Z,4.30
2022-11-08T06:52:57.791Z,4.40
2022-11-08T06:55:24.400Z,4.50
2022-11-08T06:57:51.114Z,4.50
2022-11-08T07:00:18.000Z,4.40
2022-11-08T07:02:45.027Z,4.40
2022-11-08T07:05:12.282Z,4.40
2022-11-08T07:07:38.936Z,4.40
2022-11-08T07:10:05.861Z,4.50
2022-11-08T07:12:32.778Z,4.50
2022-11-08T07:14:59.492Z,4.60
2022-11-08T07:17:26.287Z,4.60
2022-11-08T07:19:52.971Z,4.70
2022-11-08T07:22:19.571Z,4.70
2022-11-08T07:24:46.183Z,4.80
2022-11-08T07:27:12.953Z,4.80
2022-11-08T07:29:40.163Z,4.90
2022-11-08T07:32:06.824Z,4.90
2022-11-08T07:34:33.551Z,5.00
2022-11-08T07:37:00.221Z,5.00
2022-11-08T07:39:26.826Z,5.10
2022-11-08T07:41:53.466Z,5.20
2022-11-08T07:44:20.106Z,5.20
2022-11-08T07:46:46.947Z,5.30
2022-11-08T07:49:13.643Z,5.30
2022-11-08T07:51:40.299Z,5.40
2022-11-08T07:54:06.920Z,5.50
2022-11-08T07:56:33.516Z,5.50
2022-11-08T07:59:00.158Z,5.60
2022-11-08T08:01:26.870Z,5.70
2022-11-08T08:03:53.735Z,5.90
2022-11-08T08:06:20.385Z,5.90
2022-11-08T08:08:47.054Z,6.00
2022-11-08T08:11:14.429Z,6.10
2022-11-08T08:13:41.485Z,6.20
2022-11-08T08:16:08.701Z,6.30
2022-11-08T08:18:35.477Z,6.40
2022-11-08T08:21:02.136Z,6.50
2022-11-08T08:23:28.821Z,6.50
2022-11-08T08:25:55.771Z,6.60
2022-11-08T08:28:22.375Z,6.70
2022-11-08T08:30:49.024Z,6.90
2022-11-08T08:33:32.184Z,7.00
2022-11-08T08:36:01.302Z,7.00
2022-11-08T08:38:28.188Z,7.20
2022-11-08T08:40:54.787Z,7.30
2022-11-08T08:43:21.923Z,7.30
2022-11-08T08:45:49.074Z,7.50
2022-11-08T08:48:15.698Z,7.60
2022-11-08T08:50:42.401Z,7.60
2022-11-08T08:53:10.275Z,7.70
2022-11-08T08:55:38.197Z,7.80
2022-11-08T08:58:05.767Z,7.80
2022-11-08T09:03:19.853Z,7.90
2022-11-08T09:05:47.020Z,8.00
2022-11-08T09:08:14.554Z,8.10
2022-11-08T09:10:41.434Z,8.20
2022-11-08T09:13:08.089Z,8.40
2022-11-08T09:15:34.752Z,8.40
2022-11-08T09:18:01.458Z,8.50
2022-11-08T09:20:28.261Z,8.60
2022-11-08T09:22:54.909Z,8.60
2022-11-08T09:25:21.648Z,8.80
2022-11-08T09:27:48.269Z,8.80
2022-11-08T09:30:14.936Z,8.90
2022-11-08T09:35:28.220Z,9.00
2022-11-08T09:37:55.220Z,9.10
2022-11-08T09:40:23.964Z,9.20
2022-11-08T09:42:57.379Z,9.20
2022-11-08T09:45:23.991Z,9.30
2022-11-08T09:47:54.872Z,9.30
2022-11-08T09:50:48.012Z,9.40
2022-11-08T09:53:35.666Z,9.40
2022-11-08T09:56:05.331Z,9.50
2022-11-08T09:58:35.582Z,9.60
2022-11-08T10:01:03.358Z,9.70
2022-11-08T10:03:30.491Z,9.70
2022-11-08T10:06:06.209Z,9.80
2022-11-08T10:08:36.387Z,9.80
2022-11-08T10:11:19.932Z,9.90
2022-11-08T10:14:09.661Z,9.90
2022-11-08T10:16:39.549Z,10.00
2022-11-08T10:19:15.853Z,10.10
2022-11-08T10:21:45.495Z,10.10
2022-11-08T10:24:21.470Z,10.10
2022-11-08T10:26:49.506Z,10.10
2022-11-08T10:29:19.798Z,10.20
2022-11-08T10:31:56.601Z,10.20
2022-11-08T10:34:25.462Z,10.30
2022-11-08T10:36:54.764Z,10.50
2022-11-08T10:39:22.945Z,10.70
2022-11-08T10:42:02.212Z,10.80
2022-11-08T10:44:28.989Z,10.80
2022-11-08T10:46:55.605Z,10.90
2022-11-08T10:49:22.267Z,10.90
2022-11-08T10:51:50.430Z,10.90
2022-11-08T10:54:39.443Z,11.00
2022-11-08T10:57:06.366Z,11.10
2022-11-08T10:59:34.078Z,11.20
2022-11-08T11:02:01.429Z,11.30
2022-11-08T11:04:29.751Z,11.30
2022-11-08T11:07:16.813Z,11.40
2022-11-08T11:09:43.573Z,11.40
2022-11-08T11:12:13.523Z,11.30
2022-11-08T11:14:40.877Z,11.30
2022-11-08T11:17:18.079Z,11.30
2022-11-08T11:19:52.740Z,11.30
2022-11-08T11:22:28.343Z,11.40
2022-11-08T11:24:55.344Z,11.50
2022-11-08T11:27:28.139Z,11.60
2022-11-08T11:30:14.742Z,11.60
2022-11-08T11:32:43.447Z,11.60
2022-11-08T11:35:13.747Z,11.60
2022-11-08T11:37:44.984Z,11.70
2022-11-08T11:40:30.068Z,11.70
2022-11-08T11:42:56.647Z,11.80
2022-11-08T11:45:23.264Z,11.80
2022-11-08T11:47:55.046Z,11.80
2022-11-08T11:50:35.029Z,11.70
2022-11-08T11:53:15.421Z,11.70
2022-11-08T11:55:54.640Z,11.60
2022-11-08T11:58:39.786Z,11.60
2022-11-08T12:01:15.623Z,11.70
2022-11-08T12:04:02.459Z,11.90
2022-11-08T12:06:55.950Z,12.00
2022-11-08T12:09:32.446Z,12.20
2022-11-08T12:12:22.104Z,12.40
2022-11-08T12:14:55.373Z,12.60
2022-11-08T12:17:35.357Z,12.80
2022-11-08T12:20:08.215Z,12.90
2022-11-08T12:22:37.928Z,13.00
2022-11-08T12:25:19.931Z,13.10
2022-11-08T12:27:46.541Z,13.20
2022-11-08T12:30:20.349Z,13.30
2022-11-08T12:32:56.084Z,13.20
2022-11-08T12:35:32.601Z,13.20
2022-11-08T12:38:18.211Z,13.20
2022-11-08T12:40:44.900Z,13.10
2022-11-08T12:43:14.902Z,13.10
2022-11-08T12:45:53.890Z,13.10
2022-11-08T12:48:46.064Z,13.00
2022-11-08T12:51:12.648Z,13.10
2022-11-08T12:53:53.136Z,13.00
2022-11-08T12:56:22.338Z,13.00
2022-11-08T12:58:50.419Z,13.00
2022-11-08T13:01:18.431Z,13.00
2022-11-08T13:03:51.255Z,12.90
2022-11-08T13:06:24.324Z,13.00
2022-11-08T13:09:11.214Z,13.00
2022-11-08T13:11:41.933Z,13.00
2022-11-08T13:14:14.296Z,12.90
2022-11-08T13:16:42.658Z,13.00
2022-11-08T13:19:26.111Z,13.00
2022-11-08T13:21:52.751Z,13.10
2022-11-08T13:27:30.269Z,13.50
2022-11-08T13:30:00.634Z,13.80
2022-11-08T13:32:33.173Z,13.90
2022-11-08T13:35:12.039Z,14.00
2022-11-08T13:37:47.130Z,14.00
2022-11-08T13:40:20.373Z,14.00
2022-11-08T13:42:50.174Z,14.10
2022-11-08T13:45:16.801Z,14.10
2022-11-08T13:47:43.424Z,14.00
2022-11-08T13:50:28.967Z,14.00
2022-11-08T13:53:08.587Z,14.00
2022-11-08T13:55:41.514Z,13.90
2022-11-08T13:58:27.008Z,13.80
2022-11-08T14:00:53.775Z,13.80
2022-11-08T14:03:50.040Z,13.80
2022-11-08T14:06:23.263Z,13.90
2022-11-08T14:08:52.938Z,13.80
2022-11-08T14:11:24.417Z,13.60
2022-11-08T14:14:01.596Z,13.50
2022-11-08T14:16:30.789Z,13.60
2022-11-08T14:19:09.801Z,13.50
2022-11-08T14:21:36.446Z,13.40
2022-11-08T14:24:03.422Z,13.40
2022-11-08T14:26:31.405Z,13.30
2022-11-08T14:28:59.566Z,13.20
2022-11-08T14:31:31.089Z,13.10
2022-11-08T14:33:58.588Z,13.10
2022-11-08T14:36:25.959Z,13.10
2022-11-08T14:38:59.939Z,13.00
2022-11-08T14:41:27.944Z,12.90
2022-11-08T14:43:55.728Z,12.90
2022-11-08T14:46:28.698Z,12.80
2022-11-08T14:48:56.780Z,12.70
2022-11-08T14:51:24.640Z,12.70
2022-11-08T14:53:52.570Z,12.60
2022-11-08T14:56:23.445Z,12.50
2022-11-08T14:58:51.089Z,12.40
2022-11-08T15:01:22.659Z,12.30
2022-11-08T15:04:00.562Z,12.20
2022-11-08T15:06:31.533Z,12.10
2022-11-08T15:08:58.468Z,12.10
2022-11-08T15:11:28.674Z,12.00
2022-11-08T15:13:57.961Z,11.90
2022-11-08T15:16:24.757Z,11.80
2022-11-08T15:18:51.663Z,11.70
2022-11-08T15:21:29.479Z,11.70
2022-11-08T15:24:11.300Z,11.70
2022-11-08T15:26:38.188Z,11.70
2022-11-08T15:29:13.723Z,11.70
2022-11-08T15:31:46.111Z,11.60
2022-11-08T15:34:23.738Z,11.50
2022-11-08T15:36:50.537Z,11.50
2022-11-08T15:39:22.670Z,11.40
2022-11-08T15:42:02.896Z,11.30
2022-11-08T15:44:29.909Z,11.20
2022-11-08T15:46:56.995Z,11.10
2022-11-08T15:49:25.071Z,11.00
2022-11-08T15:51:52.898Z,11.00
2022-11-08T15:54:20.212Z,11.00
2022-11-08T15:56:47.668Z,11.00
2022-11-08T15:59:20.911Z,10.90
2022-11-08T16:01:53.537Z,10.80
2022-11-08T16:04:20.236Z,10.80
2022-11-08T16:06:47.000Z,10.70
2022-11-08T16:09:14.109Z,10.60
2022-11-08T16:11:41.388Z,10.50
2022-11-08T16:14:13.344Z,10.40
2022-11-08T16:16:39.976Z,10.40
2022-11-08T16:19:11.678Z,10.30
2022-11-08T16:21:38.365Z,10.20
2022-11-08T16:24:05.043Z,10.10
2022-11-08T16:26:31.693Z,10.00
2022-11-08T16:28:58.465Z,10.00
2022-11-08T16:31:25.141Z,9.90
2022-11-08T16:33:54.018Z,9.80
2022-11-08T16:36:25.121Z,9.80
2022-11-08T16:38:53.464Z,9.70
2022-11-08T16:41:20.771Z,9.70
2022-11-08T16:43:47.427Z,9.60
2022-11-08T16:46:15.684Z,9.50
2022-11-08T16:48:47.376Z,9.40
2022-11-08T16:51:18.736Z,9.30
2022-11-08T16:53:46.159Z,9.30
2022-11-08T16:56:12.916Z,9.20
2022-11-08T16:58:39.566Z,9.10
2022-11-08T17:01:10.464Z,9.10
2022-11-08T17:03:37.444Z,9.10
2022-11-08T17:06:04.128Z,9.00
2022-11-08T17:08:30.808Z,8.90
2022-11-08T17:10:57.472Z,8.80
2022-11-08T17:13:24.102Z,8.80
2022-11-08T17:15:51.121Z,8.70
2022-11-08T17:18:19.226Z,8.70
2022-11-08T17:20:46.339Z,8.60
2022-11-08T17:23:13.198Z,8.60
2022-11-08T17:25:42.753Z,8.50
2022-11-08T17:28:10.368Z,8.50
2022-11-08T17:30:37.128Z,8.40
2022-11-08T17:33:03.796Z,8.30
2022-11-08T17:35:30.439Z,8.30
2022-11-08T17:37:57.397Z,8.20
2022-11-08T17:40:24.071Z,8.10
2022-11-08T17:42:50.761Z,8.10
2022-11-08T17:45:17.349Z,8.10
2022-11-08T17:47:44.203Z,8.00
2022-11-08T17:50:10.898Z,7.90
2022-11-08T17:52:37.652Z,7.90
2022-11-08T17:55:04.649Z,7.80
2022-11-08T17:57:31.322Z,7.80
2022-11-08T17:59:58.336Z,7.70
2022-11-08T18:02:25.492Z,7.70
2022-11-08T18:04:52.235Z,7.60
2022-11-08T18:07:18.939Z,7.60
2022-11-08T18:09:45.657Z,7.50
2022-11-08T18:12:12.304Z,7.40
2022-11-08T18:14:38.940Z,7.40
2022-11-08T18:17:05.605Z,7.30
2022-11-08T18:19:32.264Z,7.30
2022-11-08T18:22:00.310Z,7.30
2022-11-08T18:24:26.943Z,7.20
2022-11-08T18:26:53.966Z,7.20
2022-11-08T18:29:20.731Z,7.20
2022-11-08T18:31:47.421Z,7.10
2022-11-08T18:34:14.156Z,7.10
2022-11-08T18:36:40.906Z,7.10
2022-11-08T18:39:07.574Z,7.00
2022-11-08T18:41:34.313Z,7.00
2022-11-08T18:44:01.528Z,6.90
2022-11-08T18:46:29.140Z,6.90
2022-11-08T18:48:55.859Z,6.80
2022-11-08T18:51:22.993Z,6.80
2022-11-08T18:53:50.043Z,6.80
2022-11-08T18:56:16.714Z,6.80
2022-11-08T18:58:44.635Z,6.80
2022-11-08T19:01:11.803Z,6.70
2022-11-08T19:03:38.730Z,6.70
2022-11-08T19:06:05.572Z,6.70
2022-11-08T19:08:32.772Z,6.60
2022-11-08T19:11:04.010Z,6.60
2022-11-08T19:13:32.463Z,6.50
2022-11-08T19:16:00.715Z,6.40
2022-11-08T19:18:28.101Z,6.20
2022-11-08T19:20:56.018Z,6.20
2022-11-08T19:23:22.695Z,6.20
2022-11-08T19:26:00.906Z,6.20
2022-11-08T19:28:32.672Z,6.20
2022-11-08T19:30:59.660Z,6.20
2022-11-08T19:33:27.524Z,6.30
2022-11-08T19:35:55.487Z,6.30
2022-11-08T19:38:22.651Z,6.20
2022-11-08T19:40:50.371Z,6.20
2022-11-08T19:43:18.198Z,6.10
2022-11-08T19:45:50.736Z,6.00
2022-11-08T19:48:21.306Z,5.90
2022-11-08T19:50:50.966Z,5.80
2022-11-08T19:53:18.018Z,5.80
2022-11-08T19:55:46.237Z,5.80
2022-11-08T19:58:16.379Z,5.80
2022-11-08T20:00:43.559Z,5.80
2022-11-08T20:03:10.187Z,5.80
2022-11-08T20:05:36.959Z,5.80
2022-11-08T20:08:06.728Z,5.70
2022-11-08T20:10:34.231Z,5.80
2022-11-08T20:13:00.881Z,5.70
2022-11-08T20:15:28.142Z,5.70
2022-11-08T20:17:55.366Z,5.70
2022-11-08T20:20:22.031Z,5.70
2022-11-08T20:22:48.720Z,5.70
2022-11-08T20:25:15.446Z,5.70
2022-11-08T20:27:42.235Z,5.60
2022-11-08T20:30:09.274Z,5.40
2022-11-08T20:32:35.958Z,5.40
2022-11-08T20:35:04.163Z,5.40
2022-11-08T20:37:31.457Z,5.40
2022-11-08T20:39:58.304Z,5.50
2022-11-08T20:42:24.977Z,5.50
2022-11-08T20:44:53.346Z,5.50
2022-11-08T20:47:20.407Z,5.50
2022-11-08T20:49:47.085Z,5.40
2022-11-08T20:52:16.619Z,5.40
2022-11-08T20:54:44.073Z,5.30
2022-11-08T20:57:10.846Z,5.30
2022-11-08T20:59:37.525Z,5.30
2022-11-08T21:02:04.259Z,5.30
2022-11-08T21:04:31.000Z,5.30
2022-11-08T21:07:59.519Z,5.30
2022-11-08T21:09:50.484Z,5.30
2022-11-08T21:12:18.547Z,5.30
2022-11-08T21:14:45.281Z,5.30
2022-11-08T21:17:27.165Z,5.20
2022-11-08T21:19:54.163Z,5.10
2022-11-08T21:22:20.906Z,5.10
2022-11-08T21:24:48.115Z,5.00
2022-11-08T21:27:15.511Z,5.00
2022-11-08T21:29:42.251Z,5.00
2022-11-08T21:32:09.041Z,5.00
2022-11-08T21:34:35.904Z,5.00
2022-11-08T21:37:02.755Z,5.00
2022-11-08T21:39:29.648Z,4.90
2022-11-08T21:41:56.403Z,5.00
2022-11-08T21:44:23.020Z,4.90
2022-11-08T21:46:50.653Z,4.90
2022-11-08T21:49:17.892Z,4.90
2022-11-08T21:51:45.005Z,4.90
2022-11-08T21:54:11.643Z,4.90
2022-11-08T21:56:38.951Z,4.80
2022-11-08T21:59:05.592Z,4.70
2022-11-08T22:01:32.417Z,4.70
2022-11-08T22:03:59.780Z,4.70
2022-11-08T22:06:26.956Z,4.70
2022-11-08T22:08:53.691Z,4.70
2022-11-08T22:11:20.298Z,4.60
2022-11-08T22:13:46.901Z,4.60
2022-11-08T22:16:13.579Z,4.60
2022-11-08T22:19:03.555Z,4.60
2022-11-08T22:21:40.239Z,4.70
2022-11-08T22:24:11.788Z,4.80
2022-11-08T22:26:39.094Z,4.70
2022-11-08T22:29:06.065Z,4.70
2022-11-08T22:31:33.036Z,4.70
2022-11-08T22:33:59.667Z,4.60
2022-11-08T22:36:26.605Z,4.60
2022-11-08T22:38:53.484Z,4.60
2022-11-08T22:41:20.911Z,4.50
2022-11-08T22:43:47.747Z,4.50
2022-11-08T22:46:14.671Z,4.50
2022-11-08T22:48:41.317Z,4.50
2022-11-08T22:51:08.610Z,4.50
2022-11-08T22:53:35.513Z,4.50
2022-11-08T22:56:05.737Z,4.40
2022-11-08T22:58:35.130Z,4.40
2022-11-08T23:01:01.765Z,4.30
2022-11-08T23:03:28.523Z,4.20
2022-11-08T23:05:55.960Z,4.20
2022-11-08T23:08:23.902Z,4.30
2022-11-08T23:11:09.480Z,4.30
2022-11-08T23:13:55.214Z,4.30
2022-11-08T23:16:37.848Z,4.20
2022-11-08T23:19:25.235Z,4.30
2022-11-08T23:22:11.086Z,4.30
2022-11-08T23:24:37.823Z,4.30
2022-11-08T23:27:23.390Z,4.40
2022-11-08T23:30:08.516Z,4.50
2022-11-08T23:32:35.604Z,4.40
2022-11-08T23:35:02.696Z,4.40
2022-11-08T23:37:29.609Z,4.30
2022-11-08T23:40:15.193Z,4.40
2022-11-08T23:43:00.456Z,4.40
2022-11-08T23:45:27.226Z,4.40
2022-11-08T23:47:53.917Z,4.40
2022-11-08T23:50:20.565Z,4.40
2022-11-08T23:52:47.408Z,4.40
2022-11-08T23:55:14.061Z,4.40
2022-11-08T23:57:40.784Z,4.40
